sensor_id;sensor_type;location;lat;lon;timestamp;P1;durP1;ratioP1;P2;durP2;ratioP2
11418;SDS011;32800;44.876;13.880;2023-05-02T00:00:36;3.17;;;2.30;;
11418;SDS011;32800;44.876;13.880;2023-05-02T00:03:02;2.50;;;2.30;;
11418;SDS011;32800;44.876;13.880;2023-05-02T00:05:28;3.13;;;2.70;;
11418;SDS011;32800;44.876;13.880;2023-05-02T00:07:54;2.63;;;2.43;;
11418;SDS011;32800;44.876;13.880;2023-05-02T00:10:20;3.20;;;2.57;;
11418;SDS011;32800;44.876;13.880;2023-05-02T00:12:45;3.40;;;2.30;;
11418;SDS011;32800;44.876;13.880;2023-05-02T00:15:11;2.73;;;2.50;;
11418;SDS011;32800;44.876;13.880;2023-05-02T00:17:38;2.70;;;2.50;;
11418;SDS011;32800;44.876;13.880;2023-05-02T00:20:05;2.97;;;2.30;;
11418;SDS011;32800;44.876;13.880;2023-05-02T00:22:33;2.60;;;2.30;;
11418;SDS011;32800;44.876;13.880;2023-05-02T00:24:59;2.37;;;2.17;;
11418;SDS011;32800;44.876;13.880;2023-05-02T00:27:25;2.47;;;2.27;;
11418;SDS011;32800;44.876;13.880;2023-05-02T00:29:50;2.70;;;2.50;;
11418;SDS011;32800;44.876;13.880;2023-05-02T00:32:17;2.20;;;2.00;;
11418;SDS011;32800;44.876;13.880;2023-05-02T00:34:43;2.80;;;2.60;;
11418;SDS011;32800;44.876;13.880;2023-05-02T00:37:08;2.50;;;2.30;;
11418;SDS011;32800;44.876;13.880;2023-05-02T00:39:34;2.43;;;2.20;;
11418;SDS011;32800;44.876;13.880;2023-05-02T00:42:00;2.60;;;2.40;;
11418;SDS011;32800;44.876;13.880;2023-05-02T00:44:26;2.40;;;2.20;;
11418;SDS011;32800;44.876;13.880;2023-05-02T00:46:52;2.47;;;2.27;;
11418;SDS011;32800;44.876;13.880;2023-05-02T00:49:18;2.50;;;2.30;;
11418;SDS011;32800;44.876;13.880;2023-05-02T00:51:44;2.77;;;2.20;;
11418;SDS011;32800;44.876;13.880;2023-05-02T00:54:10;2.30;;;2.10;;
11418;SDS011;32800;44.876;13.880;2023-05-02T00:56:37;2.67;;;2.47;;
11418;SDS011;32800;44.876;13.880;2023-05-02T00:59:02;2.50;;;2.30;;
11418;SDS011;32800;44.876;13.880;2023-05-02T01:01:35;3.93;;;2.47;;
11418;SDS011;32800;44.876;13.880;2023-05-02T01:04:20;2.20;;;2.00;;
11418;SDS011;32800;44.876;13.880;2023-05-02T01:06:58;2.53;;;2.33;;
11418;SDS011;32800;44.876;13.880;2023-05-02T01:09:47;2.73;;;2.23;;
11418;SDS011;32800;44.876;13.880;2023-05-02T01:12:26;3.67;;;2.50;;
11418;SDS011;32800;44.876;13.880;2023-05-02T01:14:56;2.40;;;2.00;;
11418;SDS011;32800;44.876;13.880;2023-05-02T01:17:23;3.43;;;2.13;;
11418;SDS011;32800;44.876;13.880;2023-05-02T01:19:53;2.30;;;2.10;;
11418;SDS011;32800;44.876;13.880;2023-05-02T01:22:21;2.50;;;2.30;;
11418;SDS011;32800;44.876;13.880;2023-05-02T01:30:37;2.50;;;2.30;;
11418;SDS011;32800;44.876;13.880;2023-05-02T01:33:03;6.23;;;2.37;;
11418;SDS011;32800;44.876;13.880;2023-05-02T01:35:30;2.17;;;1.87;;
11418;SDS011;32800;44.876;13.880;2023-05-02T01:37:57;2.37;;;2.17;;
11418;SDS011;32800;44.876;13.880;2023-05-02T01:40:23;5.70;;;2.33;;
11418;SDS011;32800;44.876;13.880;2023-05-02T01:42:50;3.67;;;2.33;;
11418;SDS011;32800;44.876;13.880;2023-05-02T01:45:17;2.80;;;2.33;;
11418;SDS011;32800;44.876;13.880;2023-05-02T01:47:43;2.53;;;2.33;;
11418;SDS011;32800;44.876;13.880;2023-05-02T01:50:10;3.40;;;2.40;;
11418;SDS011;32800;44.876;13.880;2023-05-02T01:52:38;2.30;;;2.10;;
11418;SDS011;32800;44.876;13.880;2023-05-02T01:55:05;2.67;;;2.47;;
11418;SDS011;32800;44.876;13.880;2023-05-02T01:57:34;2.40;;;2.20;;
11418;SDS011;32800;44.876;13.880;2023-05-02T02:00:01;2.57;;;2.37;;
11418;SDS011;32800;44.876;13.880;2023-05-02T02:02:28;2.50;;;2.30;;
11418;SDS011;32800;44.876;13.880;2023-05-02T02:04:55;2.40;;;2.20;;
11418;SDS011;32800;44.876;13.880;2023-05-02T02:07:21;3.17;;;2.63;;
11418;SDS011;32800;44.876;13.880;2023-05-02T02:09:46;2.30;;;2.10;;
11418;SDS011;32800;44.876;13.880;2023-05-02T02:12:56;2.17;;;1.97;;
11418;SDS011;32800;44.876;13.880;2023-05-02T02:15:20;2.37;;;2.17;;
11418;SDS011;32800;44.876;13.880;2023-05-02T02:20:19;2.50;;;2.10;;
11418;SDS011;32800;44.876;13.880;2023-05-02T02:22:45;2.27;;;2.07;;
11418;SDS011;32800;44.876;13.880;2023-05-02T02:25:13;2.80;;;2.43;;
11418;SDS011;32800;44.876;13.880;2023-05-02T02:27:40;2.00;;;1.90;;
11418;SDS011;32800;44.876;13.880;2023-05-02T02:30:07;2.20;;;2.00;;
11418;SDS011;32800;44.876;13.880;2023-05-02T02:32:33;3.50;;;2.00;;
11418;SDS011;32800;44.876;13.880;2023-05-02T02:34:58;5.37;;;2.13;;
11418;SDS011;32800;44.876;13.880;2023-05-02T02:37:40;4.20;;;2.27;;
11418;SDS011;32800;44.876;13.880;2023-05-02T02:40:11;2.83;;;2.33;;
11418;SDS011;32800;44.876;13.880;2023-05-02T02:42:41;2.47;;;1.93;;
11418;SDS011;32800;44.876;13.880;2023-05-02T02:56:12;2.00;;;1.80;;
11418;SDS011;32800;44.876;13.880;2023-05-02T03:01:20;3.30;;;2.07;;
11418;SDS011;32800;44.876;13.880;2023-05-02T03:03:47;4.27;;;2.20;;
11418;SDS011;32800;44.876;13.880;2023-05-02T03:06:13;2.87;;;2.53;;
11418;SDS011;32800;44.876;13.880;2023-05-02T03:08:40;2.20;;;2.00;;
11418;SDS011;32800;44.876;13.880;2023-05-02T03:11:07;2.00;;;1.80;;
11418;SDS011;32800;44.876;13.880;2023-05-02T03:13:33;1.87;;;1.77;;
11418;SDS011;32800;44.876;13.880;2023-05-02T03:16:05;2.10;;;1.90;;
11418;SDS011;32800;44.876;13.880;2023-05-02T03:18:43;1.90;;;1.80;;
11418;SDS011;32800;44.876;13.880;2023-05-02T03:21:08;2.37;;;2.00;;
11418;SDS011;32800;44.876;13.880;2023-05-02T03:23:34;2.20;;;2.00;;
11418;SDS011;32800;44.876;13.880;2023-05-02T03:26:00;2.17;;;1.97;;
11418;SDS011;32800;44.876;13.880;2023-05-02T03:28:26;2.20;;;1.90;;
11418;SDS011;32800;44.876;13.880;2023-05-02T03:30:52;2.27;;;1.90;;
11418;SDS011;32800;44.876;13.880;2023-05-02T03:33:18;1.80;;;1.70;;
11418;SDS011;32800;44.876;13.880;2023-05-02T03:35:44;3.00;;;2.00;;
11418;SDS011;32800;44.876;13.880;2023-05-02T03:38:10;1.90;;;1.80;;
11418;SDS011;32800;44.876;13.880;2023-05-02T03:40:35;1.83;;;1.73;;
11418;SDS011;32800;44.876;13.880;2023-05-02T03:43:01;2.10;;;1.73;;
11418;SDS011;32800;44.876;13.880;2023-05-02T03:45:26;2.97;;;1.90;;
11418;SDS011;32800;44.876;13.880;2023-05-02T03:47:52;1.87;;;1.77;;
11418;SDS011;32800;44.876;13.880;2023-05-02T03:50:17;2.43;;;2.00;;
11418;SDS011;32800;44.876;13.880;2023-05-02T03:52:43;1.90;;;1.80;;
11418;SDS011;32800;44.876;13.880;2023-05-02T03:55:08;2.17;;;1.83;;
11418;SDS011;32800;44.876;13.880;2023-05-02T03:57:34;2.10;;;1.70;;
11418;SDS011;32800;44.876;13.880;2023-05-02T04:00:00;1.97;;;1.87;;
11418;SDS011;32800;44.876;13.880;2023-05-02T04:02:25;2.53;;;1.53;;
11418;SDS011;32800;44.876;13.880;2023-05-02T04:04:51;1.93;;;1.83;;
11418;SDS011;32800;44.876;13.880;2023-05-02T04:07:16;2.17;;;1.97;;
11418;SDS011;32800;44.876;13.880;2023-05-02T04:09:45;1.73;;;1.63;;
11418;SDS011;32800;44.876;13.880;2023-05-02T04:12:10;2.00;;;1.90;;
11418;SDS011;32800;44.876;13.880;2023-05-02T04:14:37;2.40;;;2.17;;
11418;SDS011;32800;44.876;13.880;2023-05-02T04:17:02;1.83;;;1.73;;
11418;SDS011;32800;44.876;13.880;2023-05-02T04:19:28;2.13;;;1.93;;
11418;SDS011;32800;44.876;13.880;2023-05-02T04:21:53;2.00;;;1.90;;
11418;SDS011;32800;44.876;13.880;2023-05-02T04:24:19;2.60;;;1.80;;
11418;SDS011;32800;44.876;13.880;2023-05-02T04:26:44;2.63;;;1.70;;
11418;SDS011;32800;44.876;13.880;2023-05-02T04:29:14;1.63;;;1.53;;
11418;SDS011;32800;44.876;13.880;2023-05-02T04:31:40;1.87;;;1.77;;
11418;SDS011;32800;44.876;13.880;2023-05-02T04:34:06;3.83;;;1.80;;
11418;SDS011;32800;44.876;13.880;2023-05-02T04:36:32;3.33;;;1.90;;
11418;SDS011;32800;44.876;13.880;2023-05-02T04:38:58;1.87;;;1.77;;
11418;SDS011;32800;44.876;13.880;2023-05-02T04:41:24;1.83;;;1.63;;
11418;SDS011;32800;44.876;13.880;2023-05-02T04:43:49;2.47;;;2.07;;
11418;SDS011;32800;44.876;13.880;2023-05-02T04:46:15;1.80;;;1.70;;
11418;SDS011;32800;44.876;13.880;2023-05-02T04:48:42;2.00;;;1.80;;
11418;SDS011;32800;44.876;13.880;2023-05-02T04:51:08;1.93;;;1.70;;
11418;SDS011;32800;44.876;13.880;2023-05-02T04:53:34;2.20;;;2.00;;
11418;SDS011;32800;44.876;13.880;2023-05-02T04:56:01;1.90;;;1.80;;
11418;SDS011;32800;44.876;13.880;2023-05-02T04:58:27;2.27;;;1.90;;
11418;SDS011;32800;44.876;13.880;2023-05-02T05:00:52;1.70;;;1.60;;
11418;SDS011;32800;44.876;13.880;2023-05-02T05:03:19;2.70;;;1.60;;
11418;SDS011;32800;44.876;13.880;2023-05-02T05:05:44;1.70;;;1.60;;
11418;SDS011;32800;44.876;13.880;2023-05-02T05:08:10;2.10;;;1.90;;
11418;SDS011;32800;44.876;13.880;2023-05-02T05:10:36;2.80;;;1.90;;
11418;SDS011;32800;44.876;13.880;2023-05-02T05:13:01;1.90;;;1.80;;
11418;SDS011;32800;44.876;13.880;2023-05-02T05:15:28;3.17;;;1.83;;
11418;SDS011;32800;44.876;13.880;2023-05-02T05:17:54;3.73;;;1.93;;
11418;SDS011;32800;44.876;13.880;2023-05-02T05:20:19;2.27;;;2.07;;
11418;SDS011;32800;44.876;13.880;2023-05-02T05:22:45;1.67;;;1.57;;
11418;SDS011;32800;44.876;13.880;2023-05-02T05:25:10;2.03;;;1.83;;
11418;SDS011;32800;44.876;13.880;2023-05-02T05:27:36;2.10;;;1.97;;
11418;SDS011;32800;44.876;13.880;2023-05-02T05:30:03;1.97;;;1.77;;
11418;SDS011;32800;44.876;13.880;2023-05-02T05:32:28;2.83;;;1.90;;
11418;SDS011;32800;44.876;13.880;2023-05-02T05:34:54;2.87;;;2.03;;
11418;SDS011;32800;44.876;13.880;2023-05-02T05:37:20;5.43;;;2.07;;
11418;SDS011;32800;44.876;13.880;2023-05-02T05:39:46;3.67;;;2.00;;
11418;SDS011;32800;44.876;13.880;2023-05-02T05:42:12;3.47;;;1.77;;
11418;SDS011;32800;44.876;13.880;2023-05-02T05:44:37;3.13;;;2.07;;
11418;SDS011;32800;44.876;13.880;2023-05-02T05:47:03;2.90;;;2.00;;
11418;SDS011;32800;44.876;13.880;2023-05-02T05:49:29;1.80;;;1.70;;
11418;SDS011;32800;44.876;13.880;2023-05-02T05:51:55;2.20;;;2.00;;
11418;SDS011;32800;44.876;13.880;2023-05-02T05:54:21;2.13;;;1.97;;
11418;SDS011;32800;44.876;13.880;2023-05-02T05:56:46;1.97;;;1.87;;
11418;SDS011;32800;44.876;13.880;2023-05-02T05:59:12;3.03;;;2.00;;
11418;SDS011;32800;44.876;13.880;2023-05-02T06:01:37;2.87;;;2.30;;
11418;SDS011;32800;44.876;13.880;2023-05-02T06:04:03;2.90;;;1.70;;
11418;SDS011;32800;44.876;13.880;2023-05-02T06:06:29;3.33;;;1.80;;
11418;SDS011;32800;44.876;13.880;2023-05-02T06:08:58;2.33;;;1.93;;
11418;SDS011;32800;44.876;13.880;2023-05-02T06:11:24;2.00;;;1.90;;
11418;SDS011;32800;44.876;13.880;2023-05-02T06:13:50;2.00;;;1.80;;
11418;SDS011;32800;44.876;13.880;2023-05-02T06:16:16;4.23;;;1.80;;
11418;SDS011;32800;44.876;13.880;2023-05-02T06:18:42;5.03;;;2.43;;
11418;SDS011;32800;44.876;13.880;2023-05-02T06:21:08;2.83;;;1.90;;
11418;SDS011;32800;44.876;13.880;2023-05-02T06:23:33;2.37;;;2.00;;
11418;SDS011;32800;44.876;13.880;2023-05-02T06:25:59;1.90;;;1.80;;
11418;SDS011;32800;44.876;13.880;2023-05-02T06:28:26;2.00;;;1.90;;
11418;SDS011;32800;44.876;13.880;2023-05-02T06:31:01;1.73;;;1.63;;
11418;SDS011;32800;44.876;13.880;2023-05-02T06:33:28;1.70;;;1.60;;
11418;SDS011;32800;44.876;13.880;2023-05-02T06:35:54;2.10;;;2.00;;
11418;SDS011;32800;44.876;13.880;2023-05-02T06:38:20;2.10;;;1.90;;
11418;SDS011;32800;44.876;13.880;2023-05-02T06:40:45;2.00;;;1.90;;
11418;SDS011;32800;44.876;13.880;2023-05-02T06:43:11;2.07;;;1.87;;
11418;SDS011;32800;44.876;13.880;2023-05-02T06:45:37;1.83;;;1.73;;
11418;SDS011;32800;44.876;13.880;2023-05-02T06:48:03;2.30;;;2.10;;
11418;SDS011;32800;44.876;13.880;2023-05-02T06:50:29;2.37;;;2.17;;
11418;SDS011;32800;44.876;13.880;2023-05-02T06:52:55;2.27;;;1.93;;
11418;SDS011;32800;44.876;13.880;2023-05-02T06:55:20;1.80;;;1.70;;
11418;SDS011;32800;44.876;13.880;2023-05-02T06:57:47;3.33;;;1.90;;
11418;SDS011;32800;44.876;13.880;2023-05-02T07:00:15;2.60;;;1.93;;
11418;SDS011;32800;44.876;13.880;2023-05-02T07:02:41;2.57;;;2.00;;
11418;SDS011;32800;44.876;13.880;2023-05-02T07:05:07;2.17;;;1.97;;
11418;SDS011;32800;44.876;13.880;2023-05-02T07:07:33;2.27;;;2.07;;
11418;SDS011;32800;44.876;13.880;2023-05-02T07:09:58;3.13;;;2.00;;
11418;SDS011;32800;44.876;13.880;2023-05-02T07:12:27;2.53;;;2.17;;
11418;SDS011;32800;44.876;13.880;2023-05-02T07:14:52;2.87;;;1.80;;
11418;SDS011;32800;44.876;13.880;2023-05-02T07:17:18;5.90;;;2.10;;
11418;SDS011;32800;44.876;13.880;2023-05-02T07:19:43;2.10;;;1.93;;
11418;SDS011;32800;44.876;13.880;2023-05-02T07:22:09;2.37;;;2.00;;
11418;SDS011;32800;44.876;13.880;2023-05-02T07:24:35;2.57;;;1.90;;
11418;SDS011;32800;44.876;13.880;2023-05-02T07:27:04;2.40;;;1.93;;
11418;SDS011;32800;44.876;13.880;2023-05-02T07:29:29;2.37;;;1.83;;
11418;SDS011;32800;44.876;13.880;2023-05-02T07:31:55;2.33;;;2.03;;
11418;SDS011;32800;44.876;13.880;2023-05-02T07:34:20;2.17;;;1.97;;
11418;SDS011;32800;44.876;13.880;2023-05-02T07:36:46;2.20;;;2.00;;
11418;SDS011;32800;44.876;13.880;2023-05-02T07:39:11;3.43;;;1.93;;
11418;SDS011;32800;44.876;13.880;2023-05-02T07:41:37;2.10;;;1.87;;
11418;SDS011;32800;44.876;13.880;2023-05-02T07:44:02;2.17;;;1.97;;
11418;SDS011;32800;44.876;13.880;2023-05-02T07:46:28;2.00;;;1.73;;
11418;SDS011;32800;44.876;13.880;2023-05-02T07:48:54;3.47;;;2.10;;
11418;SDS011;32800;44.876;13.880;2023-05-02T07:51:20;2.43;;;2.10;;
11418;SDS011;32800;44.876;13.880;2023-05-02T07:53:45;3.67;;;2.10;;
11418;SDS011;32800;44.876;13.880;2023-05-02T07:56:14;2.13;;;1.80;;
11418;SDS011;32800;44.876;13.880;2023-05-02T07:58:39;2.63;;;2.10;;
11418;SDS011;32800;44.876;13.880;2023-05-02T08:01:05;5.17;;;2.10;;
11418;SDS011;32800;44.876;13.880;2023-05-02T08:03:30;2.10;;;1.90;;
11418;SDS011;32800;44.876;13.880;2023-05-02T08:05:56;2.23;;;2.00;;
11418;SDS011;32800;44.876;13.880;2023-05-02T08:08:21;3.13;;;2.03;;
11418;SDS011;32800;44.876;13.880;2023-05-02T08:10:48;2.60;;;2.40;;
11418;SDS011;32800;44.876;13.880;2023-05-02T08:13:15;2.00;;;1.90;;
11418;SDS011;32800;44.876;13.880;2023-05-02T08:15:41;4.13;;;2.30;;
11418;SDS011;32800;44.876;13.880;2023-05-02T08:18:07;2.40;;;1.90;;
11418;SDS011;32800;44.876;13.880;2023-05-02T08:20:32;2.50;;;1.83;;
11418;SDS011;32800;44.876;13.880;2023-05-02T08:22:58;2.33;;;2.13;;
11418;SDS011;32800;44.876;13.880;2023-05-02T08:25:24;3.37;;;1.97;;
11418;SDS011;32800;44.876;13.880;2023-05-02T08:27:49;2.50;;;2.10;;
11418;SDS011;32800;44.876;13.880;2023-05-02T08:30:15;3.07;;;2.00;;
11418;SDS011;32800;44.876;13.880;2023-05-02T08:32:40;3.40;;;2.10;;
11418;SDS011;32800;44.876;13.880;2023-05-02T08:35:06;2.40;;;2.17;;
11418;SDS011;32800;44.876;13.880;2023-05-02T08:37:32;2.30;;;2.10;;
11418;SDS011;32800;44.876;13.880;2023-05-02T08:39:58;3.03;;;2.13;;
11418;SDS011;32800;44.876;13.880;2023-05-02T08:42:24;3.07;;;2.30;;
11418;SDS011;32800;44.876;13.880;2023-05-02T08:44:50;2.40;;;1.97;;
11418;SDS011;32800;44.876;13.880;2023-05-02T08:47:16;2.53;;;1.90;;
11418;SDS011;32800;44.876;13.880;2023-05-02T08:49:42;2.97;;;2.20;;
11418;SDS011;32800;44.876;13.880;2023-05-02T08:52:08;5.27;;;2.33;;
11418;SDS011;32800;44.876;13.880;2023-05-02T08:54:36;4.43;;;2.63;;
11418;SDS011;32800;44.876;13.880;2023-05-02T08:57:03;2.63;;;2.40;;
11418;SDS011;32800;44.876;13.880;2023-05-02T08:59:29;2.97;;;2.47;;
11418;SDS011;32800;44.876;13.880;2023-05-02T09:01:57;3.03;;;2.57;;
11418;SDS011;32800;44.876;13.880;2023-05-02T09:04:25;4.97;;;2.50;;
11418;SDS011;32800;44.876;13.880;2023-05-02T09:06:56;3.90;;;2.73;;
11418;SDS011;32800;44.876;13.880;2023-05-02T09:09:21;3.77;;;2.60;;
11418;SDS011;32800;44.876;13.880;2023-05-02T09:11:47;3.03;;;2.63;;
11418;SDS011;32800;44.876;13.880;2023-05-02T09:14:15;3.60;;;2.60;;
11418;SDS011;32800;44.876;13.880;2023-05-02T09:16:41;3.00;;;2.60;;
11418;SDS011;32800;44.876;13.880;2023-05-02T09:19:07;5.30;;;2.70;;
11418;SDS011;32800;44.876;13.880;2023-05-02T09:21:37;5.40;;;2.60;;
11418;SDS011;32800;44.876;13.880;2023-05-02T09:24:17;4.50;;;2.63;;
11418;SDS011;32800;44.876;13.880;2023-05-02T09:29:31;3.53;;;2.37;;
11418;SDS011;32800;44.876;13.880;2023-05-02T09:32:02;3.80;;;2.20;;
11418;SDS011;32800;44.876;13.880;2023-05-02T09:34:28;3.47;;;2.27;;
11418;SDS011;32800;44.876;13.880;2023-05-02T09:36:55;3.60;;;2.50;;
11418;SDS011;32800;44.876;13.880;2023-05-02T09:41:48;3.47;;;2.20;;
11418;SDS011;32800;44.876;13.880;2023-05-02T09:44:17;2.93;;;2.30;;
11418;SDS011;32800;44.876;13.880;2023-05-02T09:46:46;4.13;;;2.40;;
11418;SDS011;32800;44.876;13.880;2023-05-02T09:49:17;4.23;;;2.37;;
11418;SDS011;32800;44.876;13.880;2023-05-02T09:51:43;4.37;;;2.40;;
11418;SDS011;32800;44.876;13.880;2023-05-02T09:54:10;3.43;;;1.93;;
11418;SDS011;32800;44.876;13.880;2023-05-02T09:59:21;3.37;;;2.13;;
11418;SDS011;32800;44.876;13.880;2023-05-02T10:01:54;2.60;;;2.10;;
11418;SDS011;32800;44.876;13.880;2023-05-02T10:04:21;2.80;;;2.30;;
11418;SDS011;32800;44.876;13.880;2023-05-02T10:06:46;4.90;;;2.43;;
11418;SDS011;32800;44.876;13.880;2023-05-02T10:09:14;2.83;;;2.43;;
11418;SDS011;32800;44.876;13.880;2023-05-02T10:11:42;5.33;;;2.80;;
11418;SDS011;32800;44.876;13.880;2023-05-02T10:14:09;3.77;;;2.50;;
11418;SDS011;32800;44.876;13.880;2023-05-02T10:16:35;4.97;;;2.10;;
11418;SDS011;32800;44.876;13.880;2023-05-02T10:19:08;3.70;;;2.50;;
11418;SDS011;32800;44.876;13.880;2023-05-02T10:21:35;2.63;;;2.43;;
11418;SDS011;32800;44.876;13.880;2023-05-02T10:24:01;3.53;;;2.30;;
11418;SDS011;32800;44.876;13.880;2023-05-02T10:26:29;3.93;;;2.40;;
11418;SDS011;32800;44.876;13.880;2023-05-02T10:28:55;3.63;;;2.50;;
11418;SDS011;32800;44.876;13.880;2023-05-02T10:31:21;3.00;;;2.63;;
11418;SDS011;32800;44.876;13.880;2023-05-02T10:33:50;3.67;;;2.50;;
11418;SDS011;32800;44.876;13.880;2023-05-02T10:36:20;10.17;;;3.70;;
11418;SDS011;32800;44.876;13.880;2023-05-02T10:38:46;6.90;;;4.00;;
11418;SDS011;32800;44.876;13.880;2023-05-02T10:41:19;10.33;;;4.40;;
11418;SDS011;32800;44.876;13.880;2023-05-02T10:43:48;8.77;;;4.63;;
11418;SDS011;32800;44.876;13.880;2023-05-02T10:49:11;13.37;;;6.00;;
11418;SDS011;32800;44.876;13.880;2023-05-02T10:51:41;11.47;;;5.90;;
11418;SDS011;32800;44.876;13.880;2023-05-02T10:54:20;14.17;;;5.97;;
11418;SDS011;32800;44.876;13.880;2023-05-02T10:59:38;15.83;;;6.23;;
11418;SDS011;32800;44.876;13.880;2023-05-02T11:05:11;15.37;;;6.70;;
11418;SDS011;32800;44.876;13.880;2023-05-02T11:07:37;18.07;;;6.90;;
11418;SDS011;32800;44.876;13.880;2023-05-02T11:10:23;14.40;;;6.40;;
11418;SDS011;32800;44.876;13.880;2023-05-02T11:12:50;16.73;;;6.87;;
11418;SDS011;32800;44.876;13.880;2023-05-02T11:16:02;17.10;;;7.10;;
11418;SDS011;32800;44.876;13.880;2023-05-02T11:18:08;14.87;;;6.70;;
11418;SDS011;32800;44.876;13.880;2023-05-02T11:20:44;13.80;;;5.80;;
11418;SDS011;32800;44.876;13.880;2023-05-02T11:25:46;13.27;;;6.30;;
11418;SDS011;32800;44.876;13.880;2023-05-02T11:33:59;11.90;;;5.80;;
11418;SDS011;32800;44.876;13.880;2023-05-02T11:36:26;9.83;;;5.63;;
11418;SDS011;32800;44.876;13.880;2023-05-02T11:38:56;10.93;;;5.00;;
11418;SDS011;32800;44.876;13.880;2023-05-02T11:41:21;9.57;;;5.13;;
11418;SDS011;32800;44.876;13.880;2023-05-02T11:43:47;11.87;;;5.77;;
11418;SDS011;32800;44.876;13.880;2023-05-02T11:46:12;9.77;;;5.30;;
11418;SDS011;32800;44.876;13.880;2023-05-02T11:48:38;10.03;;;4.67;;
11418;SDS011;32800;44.876;13.880;2023-05-02T11:51:05;8.43;;;5.10;;
11418;SDS011;32800;44.876;13.880;2023-05-02T11:53:31;13.00;;;5.20;;
11418;SDS011;32800;44.876;13.880;2023-05-02T11:56:00;10.03;;;4.80;;
11418;SDS011;32800;44.876;13.880;2023-05-02T11:58:30;8.40;;;4.63;;
11418;SDS011;32800;44.876;13.880;2023-05-02T12:01:20;10.83;;;4.97;;
11418;SDS011;32800;44.876;13.880;2023-05-02T12:03:44;10.10;;;5.23;;
11418;SDS011;32800;44.876;13.880;2023-05-02T12:06:13;8.70;;;4.30;;
11418;SDS011;32800;44.876;13.880;2023-05-02T12:08:41;9.43;;;4.27;;
11418;SDS011;32800;44.876;13.880;2023-05-02T12:11:07;8.00;;;4.60;;
11418;SDS011;32800;44.876;13.880;2023-05-02T12:13:33;7.73;;;4.00;;
11418;SDS011;32800;44.876;13.880;2023-05-02T12:15:59;7.23;;;4.63;;
11418;SDS011;32800;44.876;13.880;2023-05-02T12:18:25;6.47;;;4.00;;
11418;SDS011;32800;44.876;13.880;2023-05-02T12:20:51;7.63;;;4.10;;
11418;SDS011;32800;44.876;13.880;2023-05-02T12:23:18;9.97;;;4.90;;
11418;SDS011;32800;44.876;13.880;2023-05-02T12:25:45;8.87;;;4.20;;
11418;SDS011;32800;44.876;13.880;2023-05-02T12:28:10;6.30;;;4.00;;
11418;SDS011;32800;44.876;13.880;2023-05-02T12:30:36;5.70;;;3.70;;
11418;SDS011;32800;44.876;13.880;2023-05-02T12:33:04;8.37;;;4.00;;
11418;SDS011;32800;44.876;13.880;2023-05-02T12:35:30;7.47;;;3.70;;
11418;SDS011;32800;44.876;13.880;2023-05-02T12:40:51;7.70;;;3.60;;
11418;SDS011;32800;44.876;13.880;2023-05-02T12:43:18;6.40;;;3.33;;
11418;SDS011;32800;44.876;13.880;2023-05-02T12:45:45;6.97;;;3.60;;
11418;SDS011;32800;44.876;13.880;2023-05-02T12:48:22;6.53;;;3.50;;
11418;SDS011;32800;44.876;13.880;2023-05-02T12:50:50;5.77;;;3.80;;
11418;SDS011;32800;44.876;13.880;2023-05-02T12:56:08;5.30;;;2.83;;
11418;SDS011;32800;44.876;13.880;2023-05-02T12:58:41;7.40;;;4.00;;
11418;SDS011;32800;44.876;13.880;2023-05-02T13:01:15;5.53;;;3.27;;
11418;SDS011;32800;44.876;13.880;2023-05-02T13:03:43;7.60;;;3.43;;
11418;SDS011;32800;44.876;13.880;2023-05-02T13:06:10;7.47;;;3.20;;
11418;SDS011;32800;44.876;13.880;2023-05-02T13:08:39;6.07;;;3.63;;
11418;SDS011;32800;44.876;13.880;2023-05-02T13:11:05;9.03;;;4.93;;
11418;SDS011;32800;44.876;13.880;2023-05-02T13:13:32;9.37;;;5.33;;
11418;SDS011;32800;44.876;13.880;2023-05-02T13:15:59;12.13;;;6.03;;
11418;SDS011;32800;44.876;13.880;2023-05-02T13:18:26;10.37;;;5.80;;
11418;SDS011;32800;44.876;13.880;2023-05-02T13:20:55;11.87;;;6.13;;
11418;SDS011;32800;44.876;13.880;2023-05-02T13:23:22;11.37;;;6.40;;
11418;SDS011;32800;44.876;13.880;2023-05-02T13:25:48;12.73;;;6.33;;
11418;SDS011;32800;44.876;13.880;2023-05-02T13:28:14;9.37;;;6.27;;
11418;SDS011;32800;44.876;13.880;2023-05-02T13:30:40;14.43;;;6.67;;
11418;SDS011;32800;44.876;13.880;2023-05-02T13:33:07;10.87;;;6.37;;
11418;SDS011;32800;44.876;13.880;2023-05-02T13:35:33;11.07;;;6.30;;
11418;SDS011;32800;44.876;13.880;2023-05-02T13:37:59;10.93;;;5.90;;
11418;SDS011;32800;44.876;13.880;2023-05-02T13:40:25;9.50;;;6.07;;
11418;SDS011;32800;44.876;13.880;2023-05-02T13:42:50;9.90;;;5.97;;
11418;SDS011;32800;44.876;13.880;2023-05-02T13:45:16;10.43;;;5.80;;
11418;SDS011;32800;44.876;13.880;2023-05-02T13:47:42;9.10;;;5.67;;
11418;SDS011;32800;44.876;13.880;2023-05-02T13:50:07;10.27;;;5.73;;
11418;SDS011;32800;44.876;13.880;2023-05-02T13:52:33;12.17;;;5.77;;
11418;SDS011;32800;44.876;13.880;2023-05-02T13:54:58;9.37;;;5.43;;
11418;SDS011;32800;44.876;13.880;2023-05-02T13:57:24;30.10;;;5.87;;
11418;SDS011;32800;44.876;13.880;2023-05-02T13:59:49;8.90;;;5.43;;
11418;SDS011;32800;44.876;13.880;2023-05-02T14:02:16;7.90;;;5.30;;
11418;SDS011;32800;44.876;13.880;2023-05-02T14:04:42;10.13;;;5.50;;
11418;SDS011;32800;44.876;13.880;2023-05-02T14:07:08;9.07;;;5.63;;
11418;SDS011;32800;44.876;13.880;2023-05-02T14:09:35;10.33;;;5.37;;
11418;SDS011;32800;44.876;13.880;2023-05-02T14:12:02;8.80;;;5.67;;
11418;SDS011;32800;44.876;13.880;2023-05-02T14:14:31;9.53;;;5.57;;
11418;SDS011;32800;44.876;13.880;2023-05-02T14:16:57;12.47;;;5.43;;
11418;SDS011;32800;44.876;13.880;2023-05-02T14:19:24;9.50;;;5.67;;
11418;SDS011;32800;44.876;13.880;2023-05-02T14:21:50;9.40;;;4.90;;
11418;SDS011;32800;44.876;13.880;2023-05-02T14:24:19;9.73;;;5.40;;
11418;SDS011;32800;44.876;13.880;2023-05-02T14:26:46;9.30;;;4.90;;
11418;SDS011;32800;44.876;13.880;2023-05-02T14:29:12;10.70;;;5.40;;
11418;SDS011;32800;44.876;13.880;2023-05-02T14:31:38;8.97;;;4.77;;
11418;SDS011;32800;44.876;13.880;2023-05-02T14:34:04;11.10;;;5.57;;
11418;SDS011;32800;44.876;13.880;2023-05-02T14:36:29;14.63;;;5.80;;
11418;SDS011;32800;44.876;13.880;2023-05-02T14:38:56;10.57;;;5.27;;
11418;SDS011;32800;44.876;13.880;2023-05-02T14:41:23;12.63;;;5.30;;
11418;SDS011;32800;44.876;13.880;2023-05-02T14:43:50;13.00;;;5.03;;
11418;SDS011;32800;44.876;13.880;2023-05-02T14:46:15;10.93;;;5.00;;
11418;SDS011;32800;44.876;13.880;2023-05-02T14:48:41;12.77;;;5.37;;
11418;SDS011;32800;44.876;13.880;2023-05-02T14:51:06;9.83;;;4.57;;
11418;SDS011;32800;44.876;13.880;2023-05-02T14:53:32;9.50;;;4.50;;
11418;SDS011;32800;44.876;13.880;2023-05-02T14:55:57;11.03;;;4.67;;
11418;SDS011;32800;44.876;13.880;2023-05-02T14:58:23;12.27;;;4.67;;
11418;SDS011;32800;44.876;13.880;2023-05-02T15:00:49;9.33;;;4.00;;
11418;SDS011;32800;44.876;13.880;2023-05-02T15:03:14;8.80;;;4.70;;
11418;SDS011;32800;44.876;13.880;2023-05-02T15:05:40;9.53;;;4.57;;
11418;SDS011;32800;44.876;13.880;2023-05-02T15:08:05;8.67;;;4.57;;
11418;SDS011;32800;44.876;13.880;2023-05-02T15:10:35;9.97;;;4.53;;
11418;SDS011;32800;44.876;13.880;2023-05-02T15:13:01;7.30;;;4.17;;
11418;SDS011;32800;44.876;13.880;2023-05-02T15:15:27;8.63;;;4.10;;
11418;SDS011;32800;44.876;13.880;2023-05-02T15:17:53;10.60;;;4.50;;
11418;SDS011;32800;44.876;13.880;2023-05-02T15:20:19;7.80;;;4.50;;
11418;SDS011;32800;44.876;13.880;2023-05-02T15:22:45;6.40;;;3.83;;
11418;SDS011;32800;44.876;13.880;2023-05-02T15:25:10;8.00;;;3.90;;